Time;durP1;ratioP1;P1;durP2;ratioP2;P2;SDS_P1;SDS_P2;PMS_P1;PMS_P2;Temp;Humidity;BMP_temperature;BMP_pressure;BME280_temperature;BME280_humidity;BME280_pressure;Samples;Min_cycle;Max_cycle;Signal;HPM_P1;HPM_P2
2023/10/06 00:01:25;;;;;;;0.50;0.50;;;;;;;9.78;98.53;97915.25;29395;279;63005;-91
2023/10/06 00:01:58;;;;;;;0.50;0.50;;;;;;;9.78;98.35;97920.66;29395;235;63009;-92
2023/10/06 00:02:30;;;;;;;0.50;0.50;;;;;;;9.78;98.46;97923.38;29395;226;63004;-91
2023/10/06 00:03:10;;;;;;;0.50;0.50;;;;;;;9.78;98.20;97920.66;29395;427;63009;-92
2023/10/06 00:03:44;;;;;;;0.50;0.50;;;;;;;9.77;98.43;97918.22;29395;198;63015;-90
2023/10/06 00:04:22;;;;;;;0.50;0.50;;;;;;;9.78;98.39;97925.28;29394;213;64013;-93
2023/10/06 00:04:57;;;;;;;0.50;0.50;;;;;;;9.76;98.59;97925.53;29395;242;63004;-92
2023/10/06 00:05:31;;;;;;;0.50;0.50;;;;;;;9.76;98.41;97928.25;29395;281;63009;-92
2023/10/06 00:06:05;;;;;;;0.50;0.50;;;;;;;9.74;98.74;97927.69;29395;439;63005;-92
2023/10/06 00:06:48;;;;;;;0.50;0.50;;;;;;;9.73;98.57;97926.88;29395;485;63009;-91
2023/10/06 00:07:42;;;;;;;0.50;0.50;;;;;;;9.71;98.98;97917.38;29395;230;63005;-91
2023/10/06 00:08:41;;;;;;;0.50;0.50;;;;;;;9.71;98.98;97923.59;29395;237;63009;-92
2023/10/06 00:09:28;;;;;;;0.50;0.50;;;;;;;9.72;99.16;97927.13;29395;212;63005;-94
2023/10/06 00:10:27;;;;;;;0.50;0.50;;;;;;;9.71;99.40;97925.50;29394;198;64013;-92
2023/10/06 00:11:12;;;;;;;0.50;0.50;;;;;;;9.71;99.72;97930.91;29395;207;63004;-92
2023/10/06 00:12:05;;;;;;;0.50;0.50;;;;;;;9.70;99.87;97929.31;29395;273;63009;-93
2023/10/06 00:13:06;;;;;;;0.50;0.50;;;;;;;9.68;100.00;97926.06;29395;267;63005;-91
2023/10/06 00:14:07;;;;;;;0.50;0.50;;;;;;;9.68;100.00;97936.88;29377;447;125009;-93
2023/10/06 00:14:50;;;;;;;0.50;0.50;;;;;;;9.68;100.00;97932.28;29373;219;63005;-91
2023/10/06 00:15:35;;;;;;;0.50;0.50;;;;;;;9.67;100.00;97936.06;29394;248;64013;-91
2023/10/06 00:16:27;;;;;;;0.50;0.50;;;;;;;9.65;99.62;97932.00;29439;227;63005;-92
2023/10/06 00:16:59;;;;;;;0.50;0.50;;;;;;;9.65;99.68;97932.00;29373;242;63009;-91
2023/10/06 00:17:33;;;;;;;0.50;0.50;;;;;;;9.66;99.79;97936.34;29395;213;63004;-92
2023/10/06 00:18:36;;;;;;;0.50;0.50;;;;;;;9.62;99.67;97937.94;29395;240;63009;-93
2023/10/06 00:19:36;;;;;;;0.50;0.50;;;;;;;9.62;99.58;97930.63;29394;227;64009;-90
2023/10/06 00:20:46;;;;;;;0.60;0.60;;;;;;;9.63;99.27;97928.72;29395;228;63008;-93
2023/10/06 00:22:20;;;;;;;0.60;0.60;;;;;;;9.60;99.37;97931.94;29395;224;63005;-93
2023/10/06 00:23:55;;;;;;;0.50;0.50;;;;;;;9.59;99.81;97924.91;29395;202;63009;-93
2023/10/06 00:25:24;;;;;;;0.50;0.50;;;;;;;9.53;100.00;97917.81;29394;243;64013;-54
2023/10/06 00:25:56;;;;;;;0.50;0.50;;;;;;;9.55;100.00;97929.19;29395;320;63000;-54
2023/10/06 00:26:27;;;;;;;0.50;0.50;;;;;;;9.55;100.00;97924.59;29395;269;63004;-54
2023/10/06 00:26:59;;;;;;;0.50;0.50;;;;;;;9.54;100.00;97924.88;29395;356;63000;-54
2023/10/06 00:27:31;;;;;;;0.50;0.50;;;;;;;9.54;100.00;97924.88;29395;241;63017;-55
2023/10/06 00:28:04;;;;;;;0.50;0.50;;;;;;;9.56;100.00;97925.41;29395;261;63001;-55
2023/10/06 00:28:36;;;;;;;0.50;0.50;;;;;;;9.55;100.00;97927.31;29395;245;63020;-55
2023/10/06 00:29:17;;;;;;;0.50;0.50;;;;;;;9.56;100.00;97928.13;29395;198;63000;-55
2023/10/06 00:29:54;;;;;;;0.50;0.50;;;;;;;9.57;100.00;97921.63;29394;202;64009;-55
2023/10/06 00:30:26;;;;;;;0.50;0.50;;;;;;;9.57;99.93;97932.47;29395;259;63005;-55
2023/10/06 00:31:08;;;;;;;0.50;0.50;;;;;;;9.55;99.57;97932.72;29395;199;63015;-56
2023/10/06 00:31:40;;;;;;;0.50;0.50;;;;;;;9.55;99.73;97923.78;29394;262;64004;-55
2023/10/06 00:32:27;;;;;;;0.50;0.50;;;;;;;9.52;99.41;97927.84;29394;316;64009;-55
2023/10/06 00:33:00;;;;;;;0.50;0.50;;;;;;;9.52;99.05;97927.00;29395;204;63004;-55
2023/10/06 00:33:34;;;;;;;0.50;0.50;;;;;;;9.52;99.06;97929.72;29395;410;63009;-55
2023/10/06 00:34:05;;;;;;;0.55;0.55;;;;;;;9.50;99.11;97929.16;29395;235;63004;-55
2023/10/06 00:34:37;;;;;;;0.50;0.50;;;;;;;9.50;99.09;97931.88;29395;263;63008;-55
2023/10/06 00:35:08;;;;;;;0.50;0.50;;;;;;;9.49;98.88;97922.13;29395;277;63005;-55
2023/10/06 00:35:39;;;;;;;0.55;0.55;;;;;;;9.48;98.94;97921.28;29395;225;63009;-55
2023/10/06 00:36:14;;;;;;;0.50;0.50;;;;;;;9.48;98.74;97928.59;29395;241;63005;-55
2023/10/06 00:36:52;;;;;;;0.50;0.50;;;;;;;9.48;98.95;97926.72;29394;254;64009;-55
2023/10/06 00:37:23;;;;;;;0.50;0.50;;;;;;;9.49;99.21;97927.53;29395;227;63005;-56
2023/10/06 00:37:58;;;;;;;0.50;0.50;;;;;;;9.49;99.43;97927.53;29395;202;63005;-55
2023/10/06 00:38:30;;;;;;;0.50;0.50;;;;;;;9.48;99.04;97924.00;29395;215;63005;-55
2023/10/06 00:39:12;;;;;;;0.50;0.50;;;;;;;9.48;98.96;97923.19;29395;240;63025;-55
2023/10/06 00:39:45;;;;;;;0.50;0.50;;;;;;;9.48;99.05;97923.19;29395;227;63004;-67
2023/10/06 00:40:20;;;;;;;0.50;0.50;;;;;;;9.46;99.25;97928.87;29395;219;63009;-55
2023/10/06 00:40:51;;;;;;;0.50;0.50;;;;;;;9.46;99.07;97925.34;29395;206;63012;-54
2023/10/06 00:41:23;;;;;;;0.50;0.50;;;;;;;9.45;99.46;97919.09;29395;279;63009;-54
2023/10/06 00:41:56;;;;;;;0.50;0.50;;;;;;;9.46;99.76;97922.63;29394;384;64004;-66
2023/10/06 00:42:27;;;;;;;0.50;0.50;;;;;;;9.44;99.40;97924.78;29395;364;63009;-66
2023/10/06 00:43:00;;;;;;;0.50;0.50;;;;;;;9.44;99.47;97916.66;29395;390;63005;-54
2023/10/06 00:44:40;;;;;;;0.52;0.52;;;;;;;9.43;100.00;97915.03;88180;256;64004;-91
2023/10/06 00:45:13;;;;;;;0.50;0.50;;;;;;;9.43;100.00;97917.72;29394;229;64009;-91
2023/10/06 00:45:47;;;;;;;0.50;0.50;;;;;;;9.43;100.00;97923.16;29395;204;63005;-91
2023/10/06 00:46:20;;;;;;;0.50;0.50;;;;;;;9.41;100.00;97921.50;29395;397;63009;-92
2023/10/06 00:46:58;;;;;;;0.50;0.50;;;;;;;9.40;100.00;97914.47;29395;210;63005;-91
2023/10/06 00:47:38;;;;;;;0.50;0.50;;;;;;;9.39;100.00;97912.84;29394;343;64013;-91
2023/10/06 00:48:16;;;;;;;0.50;0.50;;;;;;;9.39;100.00;97917.44;29395;197;63004;-92
2023/10/06 00:48:53;;;;;;;0.50;0.50;;;;;;;9.38;100.00;97916.62;29395;256;63009;-90
2023/10/06 00:49:30;;;;;;;0.50;0.50;;;;;;;9.38;100.00;97916.62;29395;227;63004;-91
2023/10/06 00:50:14;;;;;;;0.50;0.50;;;;;;;9.39;100.00;97909.31;29395;432;63009;-93
2023/10/06 00:50:48;;;;;;;0.50;0.50;;;;;;;9.38;100.00;97913.09;29395;268;63004;-91
2023/10/06 00:51:28;;;;;;;1.70;1.70;;;;;;;9.37;100.00;97904.16;29395;257;63008;-91
2023/10/06 00:52:06;;;;;;;0.50;0.50;;;;;;;9.38;100.00;97913.91;29395;199;63005;-92
2023/10/06 00:52:43;;;;;;;0.50;0.50;;;;;;;9.38;100.00;97905.78;29416;199;64014;-90
2023/10/06 00:53:16;;;;;;;0.50;0.50;;;;;;;9.38;100.00;97911.19;29395;228;63005;-91
2023/10/06 00:53:58;;;;;;;0.50;0.50;;;;;;;9.38;100.00;97905.78;29395;208;63015;-91
2023/10/06 00:54:31;;;;;;;0.50;0.50;;;;;;;9.38;100.00;97905.78;29394;265;64009;-90
2023/10/06 00:55:06;;;;;;;0.50;0.50;;;;;;;9.38;100.00;97903.06;29395;256;63009;-90
2023/10/06 00:55:44;;;;;;;0.50;0.50;;;;;;;9.40;100.00;97903.63;29395;202;63005;-92
2023/10/06 00:56:23;;;;;;;0.50;0.50;;;;;;;9.42;100.00;97911.50;29395;537;63009;-91
2023/10/06 00:56:57;;;;;;;0.50;0.50;;;;;;;9.41;100.00;97909.88;29395;226;63004;-90
2023/10/06 00:57:37;;;;;;;0.50;0.50;;;;;;;9.39;100.00;97907.41;29394;245;64013;-91
2023/10/06 00:58:10;;;;;;;0.50;0.50;;;;;;;9.37;100.00;97904.16;29395;267;63004;-92
2023/10/06 00:59:49;;;;;;;0.50;0.50;;;;;;;9.32;100.00;97904.13;87958;226;131000;-92
2023/10/06 01:00:24;;;;;;;0.52;0.52;;;;;;;9.32;100.00;97906.03;29394;335;64009;-92
2023/10/06 01:00:57;;;;;;;0.50;0.50;;;;;;;9.30;100.00;97903.59;29395;219;63005;-91
2023/10/06 01:01:29;;;;;;;0.50;0.50;;;;;;;9.30;100.00;97903.59;29395;265;63009;-92
2023/10/06 01:02:11;;;;;;;0.50;0.50;;;;;;;9.30;100.00;97906.28;29395;223;63005;-90
2023/10/06 01:02:54;;;;;;;0.55;0.55;;;;;;;9.30;100.00;97903.59;29416;216;64013;-91
2023/10/06 01:03:27;;;;;;;0.60;0.60;;;;;;;9.30;100.00;97903.59;29395;239;63004;-92
2023/10/06 01:04:01;;;;;;;0.50;0.50;;;;;;;9.31;100.00;97901.69;29395;263;63014;-91
2023/10/06 01:04:36;;;;;;;0.50;0.50;;;;;;;9.29;100.00;97899.25;29395;209;63016;-92
2023/10/06 01:05:15;;;;;;;0.50;0.50;;;;;;;9.29;100.00;97901.12;29395;270;63009;-92
2023/10/06 01:05:48;;;;;;;0.50;0.50;;;;;;;9.30;100.00;97902.75;29395;222;63008;-91
2023/10/06 01:06:27;;;;;;;0.50;0.50;;;;;;;9.29;100.00;97896.53;29395;273;63008;-91
2023/10/06 01:07:00;;;;;;;0.50;0.50;;;;;;;9.32;100.00;97896.00;29395;273;63005;-92
2023/10/06 01:07:32;;;;;;;0.50;0.50;;;;;;;9.32;100.00;97896.00;29395;198;63009;-92
2023/10/06 01:08:05;;;;;;;0.50;0.50;;;;;;;9.34;100.00;97893.88;29394;203;64009;-92
2023/10/06 01:08:36;;;;;;;0.50;0.50;;;;;;;9.36;100.00;97904.41;29395;319;63009;-91
2023/10/06 01:09:15;;;;;;;0.50;0.50;;;;;;;9.34;100.00;97893.03;29395;238;63005;-92
2023/10/06 01:10:06;;;;;;;0.50;0.50;;;;;;;9.33;100.00;97894.94;29395;206;63009;-90
2023/10/06 01:10:40;;;;;;;;;;;;;;;9.33;100.00;97903.06;29996;983;6000;-92
2023/10/06 01:11:17;;;;;;;0.50;0.50;;;;;;;9.33;100.00;97897.66;29399;261;64009;-91
2023/10/06 01:11:52;;;;;;;0.50;0.50;;;;;;;9.33;100.00;97903.06;29395;249;63009;-89
2023/10/06 01:12:29;;;;;;;0.50;0.50;;;;;;;9.34;100.00;97898.47;29395;206;63004;-93
2023/10/06 01:13:12;;;;;;;0.50;0.50;;;;;;;9.33;100.00;97903.06;29395;204;63009;-91
2023/10/06 01:13:55;;;;;;;0.50;0.50;;;;;;;9.32;100.00;97904.13;29395;461;63004;-91
2023/10/06 01:14:51;;;;;;;0.50;0.50;;;;;;;9.33;100.00;97902.25;29395;206;63028;-92
2023/10/06 01:15:29;;;;;;;0.50;0.50;;;;;;;9.32;100.00;97906.84;29395;208;63005;-92
2023/10/06 01:16:11;;;;;;;0.50;0.50;;;;;;;9.29;100.00;97901.94;29395;198;63009;-91
2023/10/06 01:16:49;;;;;;;0.50;0.50;;;;;;;9.29;100.00;97895.72;29394;197;64009;-92
2023/10/06 01:17:22;;;;;;;0.50;0.50;;;;;;;9.27;100.00;97893.25;29395;225;63024;-92
2023/10/06 01:17:58;;;;;;;0.50;0.50;;;;;;;9.28;100.00;97889.47;29395;269;63005;-90
2023/10/06 01:18:35;;;;;;;0.50;0.50;;;;;;;9.27;100.00;97898.69;29395;202;63009;-89
2023/10/06 01:20:11;;;;;;;0.50;0.50;;;;;;;9.30;100.00;97894.62;29395;196;63009;-90
2023/10/06 01:20:46;;;;;;;0.50;0.50;;;;;;;9.30;100.00;97895.44;29395;229;63015;-92
2023/10/06 01:21:17;;;;;;;0.50;0.50;;;;;;;9.32;100.00;97890.59;29395;235;63008;-92
2023/10/06 01:21:53;;;;;;;0.50;0.50;;;;;;;9.33;100.00;97894.12;29394;266;64009;-91
2023/10/06 01:22:30;;;;;;;0.50;0.50;;;;;;;9.33;100.00;97897.66;29395;228;63009;-92
2023/10/06 01:23:15;;;;;;;0.50;0.50;;;;;;;9.35;100.00;97900.09;29395;247;63005;-89
2023/10/06 01:23:49;;;;;;;0.50;0.50;;;;;;;9.34;100.00;97891.16;29395;219;63009;-90
2023/10/06 01:24:26;;;;;;;0.50;0.50;;;;;;;9.32;100.00;97898.72;29395;237;63004;-92
2023/10/06 01:25:12;;;;;;;0.52;0.52;;;;;;;9.31;100.00;97898.97;29395;225;63009;-92
2023/10/06 01:25:46;;;;;;;0.50;0.50;;;;;;;9.29;100.00;97901.12;29395;217;63005;-91
2023/10/06 01:26:24;;;;;;;0.50;0.50;;;;;;;9.27;100.00;97893.25;29395;202;63019;-91
2023/10/06 01:27:06;;;;;;;0.50;0.50;;;;;;;9.24;100.00;97896.50;29394;252;64009;-92
2023/10/06 01:27:37;;;;;;;0.50;0.50;;;;;;;9.16;100.00;97886.12;29417;252;63009;-89
2023/10/06 01:28:12;;;;;;;0.50;0.50;;;;;;;9.20;100.00;97895.38;29395;197;63004;-90
2023/10/06 01:28:47;;;;;;;0.50;0.50;;;;;;;9.20;100.00;97891.84;29395;242;63008;-93
2023/10/06 01:29:22;;;;;;;0.50;0.50;;;;;;;9.21;100.00;97893.47;29395;225;63004;-92
2023/10/06 01:31:04;;;;;;;0.53;0.53;;;;;;;9.21;100.00;97898.91;88180;197;64004;-90
2023/10/06 01:31:41;;;;;;;0.50;0.50;;;;;;;9.21;100.00;97894.28;29394;261;64009;-94
2023/10/06 01:32:15;;;;;;;0.50;0.50;;;;;;;9.21;100.00;97899.72;29394;247;64009;-93
2023/10/06 01:32:50;;;;;;;0.50;0.50;;;;;;;9.22;100.00;97895.94;29395;208;63026;-92
2023/10/06 01:33:26;;;;;;;0.50;0.50;;;;;;;9.22;100.00;97895.13;29395;210;63005;-90
2023/10/06 01:33:59;;;;;;;0.50;0.50;;;;;;;9.21;100.00;97894.28;29394;202;64013;-92
2023/10/06 01:34:39;;;;;;;0.50;0.50;;;;;;;9.21;100.00;97890.78;29395;216;63005;-92
2023/10/06 01:35:15;;;;;;;0.50;0.50;;;;;;;9.20;100.00;97894.56;29395;232;63009;-92
2023/10/06 01:35:50;;;;;;;0.50;0.50;;;;;;;9.17;100.00;97884.25;29395;198;63004;-90
2023/10/06 01:36:22;;;;;;;0.50;0.50;;;;;;;9.15;100.00;97895.31;29395;202;63009;-90
2023/10/06 01:36:59;;;;;;;0.50;0.50;;;;;;;9.15;100.00;97891.81;29395;251;63004;-90
2023/10/06 01:37:35;;;;;;;0.50;0.50;;;;;;;9.14;100.00;97893.69;29395;202;63008;-90
2023/10/06 01:39:04;;;;;;;0.50;0.50;;;;;;;9.11;100.00;97888.78;29394;237;64014;-91
2023/10/06 01:39:43;;;;;;;0.50;0.50;;;;;;;9.12;100.00;97889.63;29395;214;63005;-91
2023/10/06 01:41:16;;;;;;;0.50;0.50;;;;;;;9.13;100.00;97883.13;29395;211;63005;-89
2023/10/06 01:41:54;;;;;;;0.50;0.50;;;;;;;9.14;100.00;97880.16;29395;202;63009;-92
2023/10/06 01:42:26;;;;;;;0.50;0.50;;;;;;;9.15;100.00;97879.09;29395;245;63004;-91
2023/10/06 01:42:58;;;;;;;0.50;0.50;;;;;;;9.16;100.00;97886.12;29394;231;64013;-92
2023/10/06 01:43:29;;;;;;;0.50;0.50;;;;;;;9.16;100.00;97891.53;29395;213;63004;-92
2023/10/06 01:44:12;;;;;;;0.50;0.50;;;;;;;9.18;100.00;97888.59;29394;210;64013;-93
2023/10/06 01:44:46;;;;;;;0.50;0.50;;;;;;;9.19;100.00;97890.22;29395;236;63004;-89
2023/10/06 01:46:26;;;;;;;0.50;0.50;;;;;;;9.13;100.00;97875.81;88178;210;64005;-92
2023/10/06 01:46:59;;;;;;;0.50;0.50;;;;;;;9.20;100.00;97887.25;29394;235;64008;-90
2023/10/06 01:47:30;;;;;;;0.50;0.50;;;;;;;9.22;100.00;97878.88;29395;270;63005;-91
2023/10/06 01:49:01;;;;;;;0.50;0.50;;;;;;;9.22;100.00;97876.97;29395;233;63005;-90
2023/10/06 01:49:36;;;;;;;0.50;0.50;;;;;;;9.22;100.00;97879.69;29395;233;63009;-90
2023/10/06 01:50:10;;;;;;;0.50;0.50;;;;;;;9.22;100.00;97879.69;29395;264;63005;-91
2023/10/06 01:50:41;;;;;;;0.50;0.50;;;;;;;9.20;100.00;97876.41;29395;240;63009;-93
2023/10/06 01:51:15;;;;;;;0.50;0.50;;;;;;;9.21;100.00;97885.34;29395;202;63004;-93
2023/10/06 01:51:50;;;;;;;0.50;0.50;;;;;;;9.20;100.00;97889.13;29395;308;63009;-90
2023/10/06 01:52:21;;;;;;;0.50;0.50;;;;;;;9.20;100.00;97889.13;29395;196;63004;-92
2023/10/06 01:52:58;;;;;;;0.50;0.50;;;;;;;9.18;100.00;97883.97;29395;202;63009;-93
2023/10/06 01:53:32;;;;;;;0.50;0.50;;;;;;;9.20;100.00;97881.00;29394;366;64008;-92
2023/10/06 01:54:12;;;;;;;0.50;0.50;;;;;;;9.19;100.00;97884.81;29395;230;63025;-92
2023/10/06 01:54:44;;;;;;;0.50;0.50;;;;;;;9.21;100.00;97886.19;29395;202;63005;-91
2023/10/06 01:55:22;;;;;;;0.50;0.50;;;;;;;9.22;100.00;97885.09;29395;270;63009;-91
2023/10/06 01:55:55;;;;;;;0.50;0.50;;;;;;;9.24;100.00;97882.13;29394;254;64009;-91
2023/10/06 01:56:27;;;;;;;0.50;0.50;;;;;;;9.23;100.00;97873.19;29395;211;63009;-93
2023/10/06 01:56:58;;;;;;;0.50;0.50;;;;;;;9.26;100.00;97885.41;29395;208;63005;-91
2023/10/06 01:57:31;;;;;;;0.73;0.73;;;;;;;9.26;100.00;97886.22;29395;237;63009;-91
2023/10/06 01:58:07;;;;;;;0.50;0.50;;;;;;;9.27;100.00;97885.13;29395;229;63005;-91
2023/10/06 01:58:42;;;;;;;0.50;0.50;;;;;;;9.27;100.00;97877.00;29395;254;63009;-92
2023/10/06 01:59:16;;;;;;;0.50;0.50;;;;;;;9.26;100.00;97886.22;29395;256;63004;-90
2023/10/06 01:59:52;;;;;;;0.50;0.50;;;;;;;9.29;100.00;97884.88;29395;258;63009;-90
2023/10/06 02:11:55;;;;;;;0.57;0.57;;;;;;;9.13;100.00;97875.00;88122;198;64004;-89
2023/10/06 02:12:33;;;;;;;0.57;0.57;;;;;;;9.11;100.00;97877.97;29394;246;64009;-90
2023/10/06 02:13:07;;;;;;;0.50;0.50;;;;;;;9.09;100.00;97874.69;29395;229;63004;-92
2023/10/06 02:13:39;;;;;;;6.43;6.12;;;;;;;9.08;100.00;97873.06;29395;229;63009;-92
2023/10/06 02:14:23;;;;;;;0.50;0.50;;;;;;;9.05;100.00;97871.69;29395;254;63004;-93
2023/10/06 02:14:58;;;;;;;0.60;0.60;;;;;;;9.06;100.00;97875.22;29395;208;63009;-91
2023/10/06 02:15:39;;;;;;;0.50;0.50;;;;;;;9.05;100.00;97873.59;29395;260;63004;-91
2023/10/06 02:16:10;;;;;;;0.50;0.50;;;;;;;9.03;100.00;97873.84;29395;215;63009;-92
2023/10/06 02:16:41;;;;;;;0.77;0.77;;;;;;;9.02;100.00;97874.09;29395;215;63005;-94
2023/10/06 02:17:16;;;;;;;0.50;0.50;;;;;;;8.99;100.00;97867.34;29395;249;63009;-91
2023/10/06 02:17:50;;;;;;;0.50;0.50;;;;;;;9.00;100.00;97865.44;29394;196;64009;-91
2023/10/06 02:18:41;;;;;;;0.50;0.50;;;;;;;9.01;100.00;97869.75;29395;204;63009;-90
2023/10/06 02:19:17;;;;;;;0.60;0.60;;;;;;;8.98;100.00;97873.00;29395;272;63005;-91
2023/10/06 02:19:48;;;;;;;0.50;0.50;;;;;;;8.93;100.00;97864.84;29395;219;63009;-92
2023/10/06 02:21:23;;;;;;;0.50;0.50;;;;;;;8.90;100.00;97870.78;29395;231;63009;-92
2023/10/06 02:22:06;;;;;;;0.50;0.50;;;;;;;8.90;100.00;97866.16;29395;231;63004;-91
2023/10/06 02:22:37;;;;;;;0.50;0.50;;;;;;;8.90;100.00;97870.78;29395;222;63009;-92
2023/10/06 02:23:13;;;;;;;0.50;0.50;;;;;;;8.87;100.00;97868.56;29394;197;64008;-94
2023/10/06 02:23:44;;;;;;;0.50;0.50;;;;;;;8.86;100.00;97864.25;29395;222;63009;-90
2023/10/06 02:24:21;;;;;;;0.60;0.60;;;;;;;8.83;100.00;97870.16;29395;202;63005;-92
2023/10/06 02:24:53;;;;;;;0.50;0.50;;;;;;;8.81;100.00;97867.72;29395;256;63009;-91
2023/10/06 02:25:27;;;;;;;0.50;0.50;;;;;;;8.79;100.00;97869.03;29395;217;63005;-93
2023/10/06 02:26:07;;;;;;;0.50;0.50;;;;;;;8.77;100.00;97863.06;29395;245;63009;-91
2023/10/06 02:26:40;;;;;;;0.50;0.50;;;;;;;8.76;100.00;97864.12;29395;259;63005;-90
2023/10/06 02:27:11;;;;;;;0.50;0.50;;;;;;;8.74;100.00;97869.81;29395;316;63009;-90
2023/10/06 02:27:47;;;;;;;0.55;0.55;;;;;;;8.72;100.00;97872.78;29394;372;64009;-91
2023/10/06 02:28:20;;;;;;;0.50;0.50;;;;;;;8.72;100.00;97875.47;29394;245;64013;-93
2023/10/06 02:28:55;;;;;;;0.50;0.50;;;;;;;8.71;100.00;97864.91;29395;250;63004;-90
2023/10/06 02:29:31;;;;;;;0.50;0.50;;;;;;;8.70;100.00;97869.50;29395;214;63008;-92
2023/10/06 02:30:10;;;;;;;0.50;0.50;;;;;;;8.69;100.00;97865.16;29395;517;63000;-89
2023/10/06 02:31:52;;;;;;;0.62;0.62;;;;;;;8.65;100.00;97864.06;88180;196;64004;-91
2023/10/06 02:32:24;;;;;;;0.50;0.50;;;;;;;8.65;100.00;97858.66;29394;279;64009;-92
2023/10/06 02:32:57;;;;;;;0.50;0.50;;;;;;;8.66;100.00;97865.66;29395;197;63005;-91
2023/10/06 02:33:31;;;;;;;0.50;0.50;;;;;;;8.66;100.00;97871.09;29394;228;64013;-92
2023/10/06 02:34:12;;;;;;;0.50;0.50;;;;;;;8.67;100.00;97861.06;29395;198;63004;-91
2023/10/06 02:34:45;;;;;;;0.50;0.50;;;;;;;8.67;100.00;97861.91;29394;267;64013;-91
2023/10/06 02:35:19;;;;;;;0.60;0.60;;;;;;;8.65;100.00;97861.38;29395;214;63004;-92
2023/10/06 02:35:54;;;;;;;0.60;0.60;;;;;;;8.64;100.00;97862.44;29395;307;63009;-93
2023/10/06 02:36:28;;;;;;;0.50;0.50;;;;;;;8.63;100.00;97860.81;29395;260;63004;-92
2023/10/06 02:37:06;;;;;;;0.50;0.50;;;;;;;8.61;100.00;97862.94;29395;290;63008;-92
2023/10/06 02:37:39;;;;;;;0.57;0.57;;;;;;;8.62;100.00;97858.34;29395;262;63008;-92
2023/10/06 02:38:15;;;;;;;0.60;0.60;;;;;;;8.60;100.00;97861.31;29395;205;63009;-91
2023/10/06 02:38:50;;;;;;;0.50;0.50;;;;;;;8.60;100.00;97866.72;29395;275;63005;-91
2023/10/06 02:39:21;;;;;;;0.50;0.50;;;;;;;8.63;100.00;97866.22;29395;256;63016;-89
2023/10/06 02:39:53;;;;;;;0.60;0.60;;;;;;;8.63;100.00;97863.50;29394;210;64009;-92
2023/10/06 02:40:30;;;;;;;0.50;0.50;;;;;;;8.62;100.00;97858.34;29395;241;63009;-90
2023/10/06 02:41:03;;;;;;;0.50;0.50;;;;;;;8.59;100.00;97859.69;29395;203;63005;-89
2023/10/06 02:41:37;;;;;;;0.50;0.50;;;;;;;8.58;100.00;97866.16;29396;221;63009;-90
2023/10/06 02:42:14;;;;;;;0.50;0.50;;;;;;;8.56;100.00;97860.19;29395;267;63004;-90
2023/10/06 02:42:51;;;;;;;0.50;0.50;;;;;;;8.54;100.00;97854.22;29394;237;64013;-92
2023/10/06 02:43:23;;;;;;;0.50;0.50;;;;;;;8.52;100.00;97855.53;29395;206;63004;-92
2023/10/06 02:44:06;;;;;;;0.50;0.50;;;;;;;8.52;100.00;97859.06;29395;211;63008;-91
2023/10/06 02:44:42;;;;;;;0.60;0.60;;;;;;;8.52;100.00;97852.84;29395;266;63005;-89
2023/10/06 02:45:20;;;;;;;0.50;0.50;;;;;;;8.51;100.00;97853.91;29395;247;63009;-90
2023/10/06 02:46:03;;;;;;;0.50;0.50;;;;;;;8.52;100.00;97863.66;29417;240;63005;-89
2023/10/06 02:46:37;;;;;;;0.60;0.60;;;;;;;8.51;100.00;97851.22;29395;206;63009;-90
2023/10/06 02:47:11;;;;;;;0.50;0.50;;;;;;;8.50;100.00;97855.81;29395;277;63005;-89
2023/10/06 02:47:44;;;;;;;0.57;0.57;;;;;;;8.51;100.00;97857.44;29395;222;63009;-90
2023/10/06 02:48:17;;;;;;;0.50;0.50;;;;;;;8.50;100.00;97861.22;29394;258;64009;-90
2023/10/06 02:48:52;;;;;;;0.50;0.50;;;;;;;8.49;100.00;97854.16;29395;229;63009;-91
2023/10/06 02:49:31;;;;;;;0.57;0.57;;;;;;;8.50;100.00;97858.50;29395;198;63004;-90
2023/10/06 02:50:07;;;;;;;0.50;0.50;;;;;;;8.50;100.00;97860.38;29394;247;64013;-91
2023/10/06 02:50:45;;;;;;;0.50;0.50;;;;;;;8.50;100.00;97858.50;29394;215;64009;-89
2023/10/06 02:52:30;;;;;;;0.60;0.60;;;;;;;8.55;100.00;97863.97;29395;200;63005;-91
2023/10/06 02:53:07;;;;;;;0.50;0.50;;;;;;;8.58;100.00;97863.47;29395;207;63009;-90
2023/10/06 02:53:48;;;;;;;0.52;0.52;;;;;;;8.58;100.00;97863.47;29395;254;63005;-89
2023/10/06 02:54:27;;;;;;;0.50;0.50;;;;;;;8.57;100.00;97867.22;29417;274;63025;-90
2023/10/06 02:55:10;;;;;;;0.50;0.50;;;;;;;8.57;100.00;97864.53;29395;218;63005;-91
2023/10/06 02:55:48;;;;;;;0.50;0.50;;;;;;;8.57;100.00;97867.22;29394;253;64013;-93
2023/10/06 02:56:28;;;;;;;0.60;0.60;;;;;;;8.56;100.00;97865.59;29395;208;63004;-92
2023/10/06 02:57:04;;;;;;;0.50;0.50;;;;;;;8.55;100.00;97858.56;29395;228;63009;-91
2023/10/06 02:57:42;;;;;;;0.50;0.50;;;;;;;8.56;100.00;97864.78;29395;216;63004;-91
2023/10/06 02:58:26;;;;;;;0.60;0.60;;;;;;;8.55;100.00;97858.56;29395;254;63025;-91
2023/10/06 02:59:07;;;;;;;0.50;0.50;;;;;;;8.55;100.00;97858.56;29395;216;63004;-93
2023/10/06 02:59:38;;;;;;;0.60;0.60;;;;;;;8.53;100.00;97855.28;29395;210;63008;-91
2023/10/06 03:02:25;;;;;;;0.57;0.57;;;;;;;8.52;100.00;97858.25;88180;203;63992;-91
2023/10/06 03:03:12;;;;;;;0.50;0.50;;;;;;;8.51;100.00;97860.13;29394;203;64009;-92
2023/10/06 03:03:45;;;;;;;0.60;0.60;;;;;;;8.51;100.00;97862.03;29395;262;63018;-91
2023/10/06 03:04:17;;;;;;;0.50;0.50;;;;;;;8.51;100.00;97865.53;29395;200;63009;-91
2023/10/06 03:05:10;;;;;;;0.50;0.50;;;;;;;8.49;100.00;97862.28;29395;200;63005;-90
2023/10/06 03:05:49;;;;;;;0.55;0.55;;;;;;;8.48;100.00;97866.06;29416;300;64013;-92
2023/10/06 03:06:20;;;;;;;0.50;0.50;;;;;;;8.46;100.00;97860.09;29395;246;63005;-92
2023/10/06 03:06:58;;;;;;;0.50;0.50;;;;;;;8.46;100.00;97862.78;29395;202;63009;-90
2023/10/06 03:07:29;;;;;;;0.50;0.50;;;;;;;8.48;100.00;97868.75;29395;215;63004;-90
2023/10/06 03:08:08;;;;;;;0.50;0.50;;;;;;;8.48;100.00;97863.34;29395;199;63009;-91
2023/10/06 03:08:43;;;;;;;0.60;0.60;;;;;;;8.49;100.00;97867.69;29395;203;63004;-91
2023/10/06 03:09:37;;;;;;;0.50;0.50;;;;;;;8.49;100.00;97862.28;29395;214;63008;-91
2023/10/06 03:10:12;;;;;;;0.50;0.50;;;;;;;8.49;100.00;97862.28;29395;202;63005;-92
2023/10/06 03:10:45;;;;;;;0.50;0.50;;;;;;;8.49;100.00;97864.16;29394;218;64014;-91
2023/10/06 03:11:23;;;;;;;0.50;0.50;;;;;;;8.49;100.00;97869.56;29395;204;63005;-92
2023/10/06 03:11:59;;;;;;;0.50;0.50;;;;;;;8.49;100.00;97864.16;29395;254;63029;-91
2023/10/06 03:12:49;;;;;;;0.50;0.50;;;;;;;8.49;100.00;97864.97;29395;257;63005;-93
2023/10/06 03:13:36;;;;;;;0.60;0.60;;;;;;;8.50;100.00;97865.81;29417;213;63009;-92
2023/10/06 03:14:09;;;;;;;0.60;0.60;;;;;;;8.50;100.00;97861.22;29395;235;63005;-91
2023/10/06 03:15:02;;;;;;;0.50;0.50;;;;;;;8.50;100.00;97858.50;29395;212;63009;-92
2023/10/06 03:16:54;;;;;;;0.60;0.60;;;;;;;8.52;100.00;97858.25;29395;218;63011;-55
2023/10/06 03:18:31;;;;;;;0.51;0.51;;;;;;;8.51;100.00;97862.03;88180;226;64004;-93
2023/10/06 03:19:32;;;;;;;0.50;0.50;;;;;;;8.52;100.00;97861.78;29394;217;64009;-91
2023/10/06 03:20:22;;;;;;;0.50;0.50;;;;;;;8.54;100.00;97866.94;29394;244;64009;-90
2023/10/06 03:21:32;;;;;;;0.50;0.50;;;;;;;8.54;100.00;97865.03;29395;202;63009;-92
2023/10/06 03:22:35;;;;;;;;;;;;;;;;;;;;;
2023/10/06 03:24:30;;;;;;;;;;;;;;;;;;;;;
2023/10/06 03:25:28;;;;;;;0.50;0.50;;;;;;;8.53;100.00;97870.69;29394;220;64013;-90
2023/10/06 03:26:15;;;;;;;0.60;0.60;;;;;;;8.53;100.00;97863.41;29394;247;64009;-91
2023/10/06 03:26:51;;;;;;;0.60;0.60;;;;;;;8.55;100.00;97857.75;29395;278;63009;-90
2023/10/06 03:27:27;;;;;;;0.50;0.50;;;;;;;8.56;100.00;97865.59;29395;204;63005;-91
2023/10/06 03:27:58;;;;;;;0.50;0.50;;;;;;;8.58;100.00;97863.47;29395;304;63009;-89
2023/10/06 03:28:32;;;;;;;0.50;0.50;;;;;;;8.59;100.00;97859.69;29395;218;63005;-89
2023/10/06 03:29:11;;;;;;;0.50;0.50;;;;;;;8.61;100.00;97862.94;29395;221;63009;-92
2023/10/06 03:29:55;;;;;;;0.50;0.50;;;;;;;8.62;100.00;97861.06;29395;318;63014;-92
2023/10/06 03:30:33;;;;;;;0.50;0.50;;;;;;;8.62;100.00;97858.34;29394;241;64013;-90
2023/10/06 03:31:30;;;;;;;0.60;0.60;;;;;;;8.62;100.00;97859.16;29395;225;63004;-91
2023/10/06 03:32:11;;;;;;;0.50;0.50;;;;;;;8.61;100.00;97862.94;29395;218;63009;-92
2023/10/06 03:33:54;;;;;;;0.59;0.59;;;;;;;8.56;100.00;97860.19;88180;216;64005;-89